sensor_id;sensor_type;location;lat;lon;timestamp;pressure;altitude;pressure_sealevel;temperature;humidity
3917;BME280;1973;50.518;7.318;2023-04-29T00:00:33;100600.84;;;15.31;100.00
3917;BME280;1973;50.518;7.318;2023-04-29T00:03:00;100595.28;;;15.31;100.00
3917;BME280;1973;50.518;7.318;2023-04-29T00:05:27;100582.75;;;15.28;100.00
3917;BME280;1973;50.518;7.318;2023-04-29T00:07:53;100588.88;;;15.30;100.00
3917;BME280;1973;50.518;7.318;2023-04-29T00:10:20;100605.53;;;15.30;100.00
3917;BME280;1973;50.518;7.318;2023-04-29T00:12:46;100600.25;;;15.29;100.00
3917;BME280;1973;50.518;7.318;2023-04-29T00:15:13;100598.81;;;15.26;100.00
3917;BME280;1973;50.518;7.318;2023-04-29T00:17:40;100600.09;;;15.19;100.00
3917;BME280;1973;50.518;7.318;2023-04-29T00:20:07;100606.78;;;15.06;100.00
3917;BME280;1973;50.518;7.318;2023-04-29T00:22:34;100588.13;;;15.01;100.00
3917;BME280;1973;50.518;7.318;2023-04-29T00:25:00;100608.88;;;14.99;100.00
3917;BME280;1973;50.518;7.318;2023-04-29T00:27:27;100603.50;;;14.92;100.00
3917;BME280;1973;50.518;7.318;2023-04-29T00:29:53;100611.47;;;14.89;100.00
3917;BME280;1973;50.518;7.318;2023-04-29T00:32:20;100613.28;;;14.83;100.00
3917;BME280;1973;50.518;7.318;2023-04-29T00:34:47;100622.09;;;14.80;100.00
3917;BME280;1973;50.518;7.318;2023-04-29T00:37:13;100620.41;;;14.79;100.00
3917;BME280;1973;50.518;7.318;2023-04-29T00:39:40;100630.41;;;14.80;100.00
3917;BME280;1973;50.518;7.318;2023-04-29T00:42:08;100628.16;;;14.77;100.00
3917;BME280;1973;50.518;7.318;2023-04-29T00:44:35;100634.19;;;14.74;100.00
3917;BME280;1973;50.518;7.318;2023-04-29T00:47:01;100627.44;;;14.70;100.00
3917;BME280;1973;50.518;7.318;2023-04-29T00:49:28;100636.34;;;14.72;100.00
3917;BME280;1973;50.518;7.318;2023-04-29T00:51:55;100639.63;;;14.69;100.00
3917;BME280;1973;50.518;7.318;2023-04-29T00:54:23;100629.88;;;14.67;100.00
3917;BME280;1973;50.518;7.318;2023-04-29T00:56:49;100633.72;;;14.66;100.00
3917;BME280;1973;50.518;7.318;2023-04-29T00:59:17;100637.84;;;14.63;100.00
3917;BME280;1973;50.518;7.318;2023-04-29T01:01:43;100633.97;;;14.64;100.00
3917;BME280;1973;50.518;7.318;2023-04-29T01:04:10;100636.16;;;14.62;100.00
3917;BME280;1973;50.518;7.318;2023-04-29T01:07:06;100643.03;;;14.59;100.00
3917;BME280;1973;50.518;7.318;2023-04-29T01:10:04;100643.28;;;14.58;100.00
3917;BME280;1973;50.518;7.318;2023-04-29T01:15:16;100652.06;;;14.55;100.00
3917;BME280;1973;50.518;7.318;2023-04-29T01:18:04;100652.66;;;14.57;100.00
3917;BME280;1973;50.518;7.318;2023-04-29T01:20:31;100650.16;;;14.55;100.00
3917;BME280;1973;50.518;7.318;2023-04-29T01:22:58;100648.69;;;14.53;100.00
3917;BME280;1973;50.518;7.318;2023-04-29T01:25:25;100649.69;;;14.47;100.00
3917;BME280;1973;50.518;7.318;2023-04-29T01:28:01;100656.56;;;14.44;100.00
3917;BME280;1973;50.518;7.318;2023-04-29T01:30:45;100655.09;;;14.42;100.00
3917;BME280;1973;50.518;7.318;2023-04-29T01:39:00;100671.25;;;14.33;100.00
3917;BME280;1973;50.518;7.318;2023-04-29T01:41:44;100670.63;;;14.31;100.00
3917;BME280;1973;50.518;7.318;2023-04-29T01:44:15;100670.28;;;14.28;100.00
3917;BME280;1973;50.518;7.318;2023-04-29T01:46:50;100678.59;;;14.28;100.00
3917;BME280;1973;50.518;7.318;2023-04-29T01:49:23;100677.38;;;14.24;100.00
3917;BME280;1973;50.518;7.318;2023-04-29T01:51:50;100681.84;;;14.25;100.00
3917;BME280;1973;50.518;7.318;2023-04-29T01:54:16;100680.88;;;14.19;100.00
3917;BME280;1973;50.518;7.318;2023-04-29T01:56:43;100677.53;;;14.05;100.00
3917;BME280;1973;50.518;7.318;2023-04-29T01:59:10;100690.06;;;13.96;100.00
3917;BME280;1973;50.518;7.318;2023-04-29T02:01:37;100691.00;;;13.90;100.00
3917;BME280;1973;50.518;7.318;2023-04-29T02:04:03;100695.31;;;13.86;100.00
3917;BME280;1973;50.518;7.318;2023-04-29T02:06:30;100701.97;;;13.85;100.00
3917;BME280;1973;50.518;7.318;2023-04-29T02:08:57;100699.66;;;13.82;100.00
3917;BME280;1973;50.518;7.318;2023-04-29T02:11:23;100700.75;;;13.81;100.00
3917;BME280;1973;50.518;7.318;2023-04-29T02:13:50;100695.09;;;13.76;100.00
3917;BME280;1973;50.518;7.318;2023-04-29T02:16:16;100695.44;;;13.80;100.00
3917;BME280;1973;50.518;7.318;2023-04-29T02:18:44;100699.06;;;13.80;100.00
3917;BME280;1973;50.518;7.318;2023-04-29T02:21:11;100704.22;;;13.77;100.00
3917;BME280;1973;50.518;7.318;2023-04-29T02:23:37;100701.47;;;13.77;100.00
3917;BME280;1973;50.518;7.318;2023-04-29T02:26:04;100700.13;;;13.79;100.00
3917;BME280;1973;50.518;7.318;2023-04-29T02:28:32;100696.50;;;13.79;100.00
3917;BME280;1973;50.518;7.318;2023-04-29T02:31:00;100705.06;;;13.77;100.00
3917;BME280;1973;50.518;7.318;2023-04-29T02:33:26;100709.41;;;13.73;100.00
3917;BME280;1973;50.518;7.318;2023-04-29T02:35:53;100719.25;;;13.69;100.00
3917;BME280;1973;50.518;7.318;2023-04-29T02:38:19;100713.72;;;13.69;100.00
3917;BME280;1973;50.518;7.318;2023-04-29T02:40:46;100717.56;;;13.68;100.00
3917;BME280;1973;50.518;7.318;2023-04-29T02:43:12;100714.44;;;13.64;100.00
3917;BME280;1973;50.518;7.318;2023-04-29T02:45:39;100703.00;;;13.61;100.00
3917;BME280;1973;50.518;7.318;2023-04-29T02:48:06;100725.00;;;13.56;100.00
3917;BME280;1973;50.518;7.318;2023-04-29T02:50:32;100713.94;;;13.56;100.00
3917;BME280;1973;50.518;7.318;2023-04-29T02:52:59;100718.28;;;13.52;100.00
3917;BME280;1973;50.518;7.318;2023-04-29T02:55:25;100724.88;;;13.51;100.00
3917;BME280;1973;50.518;7.318;2023-04-29T02:57:52;100718.72;;;13.49;100.00
3917;BME280;1973;50.518;7.318;2023-04-29T03:00:18;100729.19;;;13.47;100.00
3917;BME280;1973;50.518;7.318;2023-04-29T03:02:46;100728.59;;;13.45;100.00
3917;BME280;1973;50.518;7.318;2023-04-29T03:05:12;100732.06;;;13.40;100.00
3917;BME280;1973;50.518;7.318;2023-04-29T03:07:39;100733.34;;;13.38;100.00
3917;BME280;1973;50.518;7.318;2023-04-29T03:10:06;100726.63;;;13.34;100.00
3917;BME280;1973;50.518;7.318;2023-04-29T03:12:32;100724.94;;;13.33;100.00
3917;BME280;1973;50.518;7.318;2023-04-29T03:14:59;100723.88;;;13.34;100.00
3917;BME280;1973;50.518;7.318;2023-04-29T03:17:26;100721.91;;;13.34;100.00
3917;BME280;1973;50.518;7.318;2023-04-29T03:19:53;100712.81;;;13.34;100.00
3917;BME280;1973;50.518;7.318;2023-04-29T03:22:20;100724.09;;;13.32;100.00
3917;BME280;1973;50.518;7.318;2023-04-29T03:24:46;100724.09;;;13.32;100.00
3917;BME280;1973;50.518;7.318;2023-04-29T03:27:12;100738.63;;;13.28;100.00
3917;BME280;1973;50.518;7.318;2023-04-29T03:29:39;100733.72;;;13.30;100.00
3917;BME280;1973;50.518;7.318;2023-04-29T03:32:05;100736.47;;;13.30;100.00
3917;BME280;1973;50.518;7.318;2023-04-29T03:34:32;100742.38;;;13.33;100.00
3917;BME280;1973;50.518;7.318;2023-04-29T03:36:59;100732.16;;;13.34;100.00
3917;BME280;1973;50.518;7.318;2023-04-29T03:39:26;100730.47;;;13.33;100.00
3917;BME280;1973;50.518;7.318;2023-04-29T03:41:57;100735.16;;;13.32;100.00
3917;BME280;1973;50.518;7.318;2023-04-29T03:44:25;100731.53;;;13.32;100.00
3917;BME280;1973;50.518;7.318;2023-04-29T03:46:51;100733.72;;;13.30;100.00
3917;BME280;1973;50.518;7.318;2023-04-29T03:49:18;100737.56;;;13.29;100.00
3917;BME280;1973;50.518;7.318;2023-04-29T03:51:44;100723.94;;;13.27;100.00
3917;BME280;1973;50.518;7.318;2023-04-29T03:54:11;100742.94;;;13.24;100.00
3917;BME280;1973;50.518;7.318;2023-04-29T03:56:38;100742.56;;;13.20;100.00
3917;BME280;1973;50.518;7.318;2023-04-29T03:59:05;100746.00;;;13.15;100.00
3917;BME280;1973;50.518;7.318;2023-04-29T04:01:31;100746.00;;;13.15;100.00
3917;BME280;1973;50.518;7.318;2023-04-29T04:03:58;100752.47;;;13.09;100.00
3917;BME280;1973;50.518;7.318;2023-04-29T04:06:25;100752.00;;;13.12;100.00
3917;BME280;1973;50.518;7.318;2023-04-29T04:08:52;100752.63;;;13.14;100.00
3917;BME280;1973;50.518;7.318;2023-04-29T04:11:18;100739.28;;;13.11;100.00
3917;BME280;1973;50.518;7.318;2023-04-29T04:13:44;100753.72;;;13.13;100.00
3917;BME280;1973;50.518;7.318;2023-04-29T04:16:11;100757.06;;;13.15;100.00
3917;BME280;1973;50.518;7.318;2023-04-29T04:18:38;100747.72;;;13.16;100.00
3917;BME280;1973;50.518;7.318;2023-04-29T04:21:08;100757.91;;;13.16;100.00
3917;BME280;1973;50.518;7.318;2023-04-29T04:23:36;100751.59;;;13.09;100.00
3917;BME280;1973;50.518;7.318;2023-04-29T04:26:06;100755.25;;;13.09;100.00
3917;BME280;1973;50.518;7.318;2023-04-29T04:28:32;100766.94;;;13.11;100.00
3917;BME280;1973;50.518;7.318;2023-04-29T04:30:59;100759.31;;;13.07;100.00
3917;BME280;1973;50.518;7.318;2023-04-29T04:33:25;100761.81;;;13.08;100.00
3917;BME280;1973;50.518;7.318;2023-04-29T04:35:53;100770.44;;;13.00;100.00
3917;BME280;1973;50.518;7.318;2023-04-29T04:38:19;100770.88;;;12.97;100.00
3917;BME280;1973;50.518;7.318;2023-04-29T04:40:46;100770.06;;;12.97;100.00
3917;BME280;1973;50.518;7.318;2023-04-29T04:43:12;100764.16;;;12.93;100.00
3917;BME280;1973;50.518;7.318;2023-04-29T04:45:38;100783.50;;;12.93;100.00
3917;BME280;1973;50.518;7.318;2023-04-29T04:48:05;100790.09;;;12.92;100.00
3917;BME280;1973;50.518;7.318;2023-04-29T04:50:32;100793.09;;;12.91;100.00
3917;BME280;1973;50.518;7.318;2023-04-29T04:52:58;100799.94;;;12.88;100.00
3917;BME280;1973;50.518;7.318;2023-04-29T04:55:25;100796.09;;;12.89;100.00
3917;BME280;1973;50.518;7.318;2023-04-29T04:57:51;100808.91;;;12.84;100.00
3917;BME280;1973;50.518;7.318;2023-04-29T05:00:18;100807.00;;;12.84;100.00
3917;BME280;1973;50.518;7.318;2023-04-29T05:02:44;100817.28;;;12.77;100.00
3917;BME280;1973;50.518;7.318;2023-04-29T05:05:12;100827.09;;;12.73;100.00
3917;BME280;1973;50.518;7.318;2023-04-29T05:07:38;100822.88;;;12.71;100.00
3917;BME280;1973;50.518;7.318;2023-04-29T05:10:05;100820.16;;;12.64;100.00
3917;BME280;1973;50.518;7.318;2023-04-29T05:12:33;100832.53;;;12.61;100.00
3917;BME280;1973;50.518;7.318;2023-04-29T05:15:01;100840.59;;;12.63;100.00
3917;BME280;1973;50.518;7.318;2023-04-29T05:17:27;100840.19;;;12.59;100.00
3917;BME280;1973;50.518;7.318;2023-04-29T05:19:54;100841.25;;;12.58;100.00
3917;BME280;1973;50.518;7.318;2023-04-29T05:22:21;100840.63;;;12.56;100.00
3917;BME280;1973;50.518;7.318;2023-04-29T05:24:47;100847.00;;;12.57;100.00
3917;BME280;1973;50.518;7.318;2023-04-29T05:27:14;100854.69;;;12.55;100.00
3917;BME280;1973;50.518;7.318;2023-04-29T05:29:40;100847.47;;;12.54;100.00
3917;BME280;1973;50.518;7.318;2023-04-29T05:32:07;100854.38;;;12.45;100.00
3917;BME280;1973;50.518;7.318;2023-04-29T05:34:33;100857.78;;;12.40;100.00
3917;BME280;1973;50.518;7.318;2023-04-29T05:37:00;100860.38;;;12.35;100.00
3917;BME280;1973;50.518;7.318;2023-04-29T05:39:26;100848.94;;;12.32;100.00
3917;BME280;1973;50.518;7.318;2023-04-29T05:41:52;100865.97;;;12.29;100.00
3917;BME280;1973;50.518;7.318;2023-04-29T05:44:19;100860.72;;;12.20;100.00
3917;BME280;1973;50.518;7.318;2023-04-29T05:46:45;100872.00;;;12.19;100.00
3917;BME280;1973;50.518;7.318;2023-04-29T05:49:13;100864.59;;;12.13;100.00
3917;BME280;1973;50.518;7.318;2023-04-29T05:51:41;100874.78;;;12.12;100.00
3917;BME280;1973;50.518;7.318;2023-04-29T05:54:07;100881.41;;;12.11;100.00
3917;BME280;1973;50.518;7.318;2023-04-29T05:56:34;100882.47;;;12.10;100.00
3917;BME280;1973;50.518;7.318;2023-04-29T05:59:00;100885.22;;;12.10;100.00
3917;BME280;1973;50.518;7.318;2023-04-29T06:01:26;100896.72;;;12.07;100.00
3917;BME280;1973;50.518;7.318;2023-04-29T06:03:53;100897.78;;;12.06;100.00
3917;BME280;1973;50.518;7.318;2023-04-29T06:06:20;100905.66;;;12.03;100.00
3917;BME280;1973;50.518;7.318;2023-04-29T06:08:46;100910.72;;;12.06;100.00
3917;BME280;1973;50.518;7.318;2023-04-29T06:11:13;100915.38;;;12.05;100.00
3917;BME280;1973;50.518;7.318;2023-04-29T06:13:40;100924.91;;;12.09;100.00
3917;BME280;1973;50.518;7.318;2023-04-29T06:16:06;100924.72;;;12.11;100.00
3917;BME280;1973;50.518;7.318;2023-04-29T06:18:33;100928.94;;;12.13;100.00
3917;BME280;1973;50.518;7.318;2023-04-29T06:20:59;100933.84;;;12.11;100.00
3917;BME280;1973;50.518;7.318;2023-04-29T06:23:26;100936.59;;;12.11;100.00
3917;BME280;1973;50.518;7.318;2023-04-29T06:25:52;100939.97;;;12.13;100.00
3917;BME280;1973;50.518;7.318;2023-04-29T06:28:18;100944.63;;;12.13;100.00
3917;BME280;1973;50.518;7.318;2023-04-29T06:30:45;100945.94;;;12.10;100.00
3917;BME280;1973;50.518;7.318;2023-04-29T06:33:11;100950.81;;;12.08;100.00
3917;BME280;1973;50.518;7.318;2023-04-29T06:35:39;100948.69;;;12.10;100.00
3917;BME280;1973;50.518;7.318;2023-04-29T06:38:06;100952.75;;;12.08;100.00
3917;BME280;1973;50.518;7.318;2023-04-29T06:40:35;100954.41;;;12.09;100.00
3917;BME280;1973;50.518;7.318;2023-04-29T06:43:02;100958.47;;;12.06;100.00
3917;BME280;1973;50.518;7.318;2023-04-29T06:45:29;100957.03;;;12.04;100.00
3917;BME280;1973;50.518;7.318;2023-04-29T06:47:56;100964.66;;;12.02;100.00
3917;BME280;1973;50.518;7.318;2023-04-29T06:50:23;100973.59;;;12.04;100.00
3917;BME280;1973;50.518;7.318;2023-04-29T06:52:49;100974.44;;;11.98;100.00
3917;BME280;1973;50.518;7.318;2023-04-29T06:55:16;100985.97;;;11.88;100.00
3917;BME280;1973;50.518;7.318;2023-04-29T06:57:43;100983.00;;;11.83;100.00
3917;BME280;1973;50.518;7.318;2023-04-29T07:00:09;100991.28;;;11.83;100.00
3917;BME280;1973;50.518;7.318;2023-04-29T07:02:36;100993.19;;;11.83;100.00
3917;BME280;1973;50.518;7.318;2023-04-29T07:05:05;100995.75;;;11.84;100.00
3917;BME280;1973;50.518;7.318;2023-04-29T07:07:31;101003.38;;;11.89;100.00
3917;BME280;1973;50.518;7.318;2023-04-29T07:09:58;101000.38;;;11.90;100.00
3917;BME280;1973;50.518;7.318;2023-04-29T07:12:25;101005.47;;;11.93;100.00
3917;BME280;1973;50.518;7.318;2023-04-29T07:14:51;100995.28;;;11.87;100.00
3917;BME280;1973;50.518;7.318;2023-04-29T07:17:18;101006.34;;;11.87;100.00
3917;BME280;1973;50.518;7.318;2023-04-29T07:19:45;101008.03;;;11.88;100.00
3917;BME280;1973;50.518;7.318;2023-04-29T07:22:12;101015.06;;;11.84;100.00
3917;BME280;1973;50.518;7.318;2023-04-29T07:24:38;101023.28;;;11.91;100.00
3917;BME280;1973;50.518;7.318;2023-04-29T07:27:05;101022.03;;;11.93;100.00
3917;BME280;1973;50.518;7.318;2023-04-29T07:29:32;101025.41;;;11.95;100.00
3917;BME280;1973;50.518;7.318;2023-04-29T07:31:58;101025.38;;;12.02;100.00
3917;BME280;1973;50.518;7.318;2023-04-29T07:34:25;101029.19;;;12.07;100.00
3917;BME280;1973;50.518;7.318;2023-04-29T07:36:51;101029.13;;;12.14;100.00
3917;BME280;1973;50.518;7.318;2023-04-29T07:39:18;101021.91;;;12.13;100.00
3917;BME280;1973;50.518;7.318;2023-04-29T07:41:44;101032.09;;;12.12;100.00
3917;BME280;1973;50.518;7.318;2023-04-29T07:44:11;101032.09;;;12.12;100.00
3917;BME280;1973;50.518;7.318;2023-04-29T07:46:37;101031.03;;;12.13;100.00
3917;BME280;1973;50.518;7.318;2023-04-29T07:49:04;101031.03;;;12.13;100.00
3917;BME280;1973;50.518;7.318;2023-04-29T07:51:32;101042.09;;;12.13;100.00
3917;BME280;1973;50.518;7.318;2023-04-29T07:53:58;101039.31;;;12.13;100.00
3917;BME280;1973;50.518;7.318;2023-04-29T07:56:25;101038.66;;;12.18;100.00
3917;BME280;1973;50.518;7.318;2023-04-29T07:58:51;101040.59;;;12.17;100.00
3917;BME280;1973;50.518;7.318;2023-04-29T08:01:18;101037.63;;;12.19;100.00
3917;BME280;1973;50.518;7.318;2023-04-29T08:03:44;101041.84;;;12.22;100.00
3917;BME280;1973;50.518;7.318;2023-04-29T08:06:11;101044.59;;;12.22;100.00
3917;BME280;1973;50.518;7.318;2023-04-29T08:08:38;101055.19;;;12.25;100.00
3917;BME280;1973;50.518;7.318;2023-04-29T08:11:05;101057.94;;;12.25;100.00
3917;BME280;1973;50.518;7.318;2023-04-29T08:13:32;101054.53;;;12.29;100.00
3917;BME280;1973;50.518;7.318;2023-04-29T08:15:58;101058.75;;;12.32;100.00
3917;BME280;1973;50.518;7.318;2023-04-29T08:18:25;101064.47;;;12.37;100.00
3917;BME280;1973;50.518;7.318;2023-04-29T08:20:51;101060.47;;;12.33;100.00
3917;BME280;1973;50.518;7.318;2023-04-29T08:23:18;101066.00;;;12.33;100.00
3917;BME280;1973;50.518;7.318;2023-04-29T08:25:44;101068.75;;;12.33;100.00
3917;BME280;1973;50.518;7.318;2023-04-29T08:28:11;101068.31;;;12.36;100.00
3917;BME280;1973;50.518;7.318;2023-04-29T08:30:39;101065.94;;;12.39;100.00
3917;BME280;1973;50.518;7.318;2023-04-29T08:33:06;101079.09;;;12.44;100.00
3917;BME280;1973;50.518;7.318;2023-04-29T08:35:34;101068.44;;;12.47;100.00
3917;BME280;1973;50.518;7.318;2023-04-29T08:38:06;101071.81;;;12.49;100.00
3917;BME280;1973;50.518;7.318;2023-04-29T08:40:34;101079.91;;;12.51;100.00
3917;BME280;1973;50.518;7.318;2023-04-29T08:43:02;101070.09;;;12.55;100.00
3917;BME280;1973;50.518;7.318;2023-04-29T08:45:30;101073.28;;;12.58;100.00
3917;BME280;1973;50.518;7.318;2023-04-29T08:47:57;101082.75;;;12.69;100.00
3917;BME280;1973;50.518;7.318;2023-04-29T08:50:25;101074.22;;;12.77;100.00
3917;BME280;1973;50.518;7.318;2023-04-29T08:52:54;101080.13;;;12.81;100.00
3917;BME280;1973;50.518;7.318;2023-04-29T08:55:21;101083.91;;;12.86;100.00
3917;BME280;1973;50.518;7.318;2023-04-29T08:57:49;101086.00;;;12.91;100.00
3917;BME280;1973;50.518;7.318;2023-04-29T09:00:15;101088.72;;;12.97;100.00
3917;BME280;1973;50.518;7.318;2023-04-29T09:02:49;101089.72;;;13.09;100.00
3917;BME280;1973;50.518;7.318;2023-04-29T09:05:16;101096.50;;;13.13;100.00
3917;BME280;1973;50.518;7.318;2023-04-29T09:07:43;101102.63;;;13.15;100.00
3917;BME280;1973;50.518;7.318;2023-04-29T09:10:11;101103.72;;;13.14;100.00
3917;BME280;1973;50.518;7.318;2023-04-29T09:12:38;101101.56;;;13.16;100.00
3917;BME280;1973;50.518;7.318;2023-04-29T09:15:05;101105.81;;;13.19;100.00
3917;BME280;1973;50.518;7.318;2023-04-29T09:17:41;101104.50;;;13.22;100.00
3917;BME280;1973;50.518;7.318;2023-04-29T09:22:49;101110.03;;;13.22;100.00
3917;BME280;1973;50.518;7.318;2023-04-29T09:25:16;101114.78;;;13.14;100.00
3917;BME280;1973;50.518;7.318;2023-04-29T09:27:43;101119.84;;;13.18;100.00
3917;BME280;1973;50.518;7.318;2023-04-29T09:30:09;101130.06;;;13.17;100.00
3917;BME280;1973;50.518;7.318;2023-04-29T09:32:38;101124.09;;;13.20;100.00
3917;BME280;1973;50.518;7.318;2023-04-29T09:37:46;101120.66;;;13.25;100.00
3917;BME280;1973;50.518;7.318;2023-04-29T09:40:32;101123.81;;;13.28;100.00
3917;BME280;1973;50.518;7.318;2023-04-29T09:43:14;101117.16;;;13.36;100.00
3917;BME280;1973;50.518;7.318;2023-04-29T09:45:45;101125.78;;;13.46;100.00
3917;BME280;1973;50.518;7.318;2023-04-29T09:48:13;101116.91;;;13.62;100.00
3917;BME280;1973;50.518;7.318;2023-04-29T09:50:42;101130.59;;;13.75;100.00
3917;BME280;1973;50.518;7.318;2023-04-29T09:53:10;101130.31;;;13.83;100.00
3917;BME280;1973;50.518;7.318;2023-04-29T09:58:29;101127.41;;;13.78;100.00
3917;BME280;1973;50.518;7.318;2023-04-29T10:00:59;101140.22;;;13.73;100.00
3917;BME280;1973;50.518;7.318;2023-04-29T10:03:31;101152.41;;;13.65;100.00
3917;BME280;1973;50.518;7.318;2023-04-29T10:05:59;101149.19;;;13.68;100.00
3917;BME280;1973;50.518;7.318;2023-04-29T10:08:28;101152.59;;;13.70;100.00
3917;BME280;1973;50.518;7.318;2023-04-29T10:10:58;101149.19;;;13.68;100.00
3917;BME280;1973;50.518;7.318;2023-04-29T10:13:26;101145.44;;;13.62;100.00
3917;BME280;1973;50.518;7.318;2023-04-29T10:16:31;101144.84;;;13.54;100.00
3917;BME280;1973;50.518;7.318;2023-04-29T10:18:55;101154.97;;;13.42;100.00
3917;BME280;1973;50.518;7.318;2023-04-29T10:21:30;101162.19;;;13.43;100.00
3917;BME280;1973;50.518;7.318;2023-04-29T10:23:58;101171.41;;;13.37;100.00
3917;BME280;1973;50.518;7.318;2023-04-29T10:26:27;101166.94;;;13.36;100.00
3917;BME280;1973;50.518;7.318;2023-04-29T10:28:55;101163.56;;;13.34;100.00
3917;BME280;1973;50.518;7.318;2023-04-29T10:31:25;101173.53;;;13.35;100.00
3917;BME280;1973;50.518;7.318;2023-04-29T10:33:55;101174.22;;;13.30;100.00
3917;BME280;1973;50.518;7.318;2023-04-29T10:36:24;101171.72;;;13.22;100.00
3917;BME280;1973;50.518;7.318;2023-04-29T10:38:54;101169.63;;;13.18;100.00
3917;BME280;1973;50.518;7.318;2023-04-29T10:41:45;101175.59;;;13.14;100.00
3917;BME280;1973;50.518;7.318;2023-04-29T10:44:14;101169.69;;;13.11;100.00
3917;BME280;1973;50.518;7.318;2023-04-29T10:46:41;101186.91;;;13.06;100.00
3917;BME280;1973;50.518;7.318;2023-04-29T10:49:09;101186.69;;;13.08;100.00
3917;BME280;1973;50.518;7.318;2023-04-29T10:51:41;101181.59;;;13.11;100.00
3917;BME280;1973;50.518;7.318;2023-04-29T10:54:12;101175.19;;;13.04;100.00
3917;BME280;1973;50.518;7.318;2023-04-29T10:59:11;101190.97;;;12.97;100.00
3917;BME280;1973;50.518;7.318;2023-04-29T11:01:48;101179.13;;;12.90;100.00
3917;BME280;1973;50.518;7.318;2023-04-29T11:04:17;101192.72;;;12.92;100.00
3917;BME280;1973;50.518;7.318;2023-04-29T11:06:51;101180.38;;;12.94;100.00
3917;BME280;1973;50.518;7.318;2023-04-29T11:09:25;101183.72;;;13.03;100.00
3917;BME280;1973;50.518;7.318;2023-04-29T11:14:30;101181.47;;;13.25;100.00
3917;BME280;1973;50.518;7.318;2023-04-29T11:17:04;101180.75;;;13.36;100.00
3917;BME280;1973;50.518;7.318;2023-04-29T11:19:40;101187.81;;;13.56;100.00
3917;BME280;1973;50.518;7.318;2023-04-29T11:22:12;101175.97;;;13.74;100.00
3917;BME280;1973;50.518;7.318;2023-04-29T11:25:08;101171.38;;;13.86;100.00
3917;BME280;1973;50.518;7.318;2023-04-29T11:27:38;101178.50;;;14.00;100.00
3917;BME280;1973;50.518;7.318;2023-04-29T11:30:07;101173.00;;;14.12;100.00
3917;BME280;1973;50.518;7.318;2023-04-29T11:32:36;101177.09;;;14.28;100.00
3917;BME280;1973;50.518;7.318;2023-04-29T11:35:14;101181.69;;;14.40;100.00
3917;BME280;1973;50.518;7.318;2023-04-29T11:37:42;101177.59;;;14.43;100.00
3917;BME280;1973;50.518;7.318;2023-04-29T11:40:11;101178.81;;;14.47;100.00
3917;BME280;1973;50.518;7.318;2023-04-29T11:42:45;101181.13;;;14.50;100.00
3917;BME280;1973;50.518;7.318;2023-04-29T11:45:13;101179.31;;;14.44;100.00
3917;BME280;1973;50.518;7.318;2023-04-29T11:47:43;101179.78;;;14.41;100.00
3917;BME280;1973;50.518;7.318;2023-04-29T11:50:15;101183.28;;;14.30;100.00
3917;BME280;1973;50.518;7.318;2023-04-29T11:52:45;101177.41;;;14.20;100.00
3917;BME280;1973;50.518;7.318;2023-04-29T11:55:12;101183.47;;;14.10;100.00
3917;BME280;1973;50.518;7.318;2023-04-29T11:57:39;101189.78;;;13.99;100.00
3917;BME280;1973;50.518;7.318;2023-04-29T12:00:10;101196.38;;;13.98;100.00
3917;BME280;1973;50.518;7.318;2023-04-29T12:02:43;101192.16;;;13.95;100.00
3917;BME280;1973;50.518;7.318;2023-04-29T12:05:10;101195.84;;;13.89;100.00
3917;BME280;1973;50.518;7.318;2023-04-29T12:07:38;101191.59;;;13.87;100.00
3917;BME280;1973;50.518;7.318;2023-04-29T12:10:09;101187.84;;;13.81;100.00
3917;BME280;1973;50.518;7.318;2023-04-29T12:12:37;101196.28;;;13.86;100.00
3917;BME280;1973;50.518;7.318;2023-04-29T12:15:07;101202.59;;;13.93;100.00
3917;BME280;1973;50.518;7.318;2023-04-29T12:17:36;101201.13;;;13.91;100.00
3917;BME280;1973;50.518;7.318;2023-04-29T12:20:03;101201.06;;;13.97;100.00
3917;BME280;1973;50.518;7.318;2023-04-29T12:22:30;101202.16;;;13.96;100.00
3917;BME280;1973;50.518;7.318;2023-04-29T12:24:57;101206.59;;;13.97;100.00
3917;BME280;1973;50.518;7.318;2023-04-29T12:27:24;101204.22;;;14.01;100.00
3917;BME280;1973;50.518;7.318;2023-04-29T12:29:51;101207.25;;;13.99;100.00
3917;BME280;1973;50.518;7.318;2023-04-29T12:32:22;101212.13;;;13.97;100.00
3917;BME280;1973;50.518;7.318;2023-04-29T12:34:50;101216.16;;;14.01;100.00
3917;BME280;1973;50.518;7.318;2023-04-29T12:37:21;101211.72;;;14.00;100.00
3917;BME280;1973;50.518;7.318;2023-04-29T12:39:49;101232.38;;;13.98;100.00
3917;BME280;1973;50.518;7.318;2023-04-29T12:42:16;101214.75;;;13.92;100.00
3917;BME280;1973;50.518;7.318;2023-04-29T12:44:44;101215.66;;;13.86;100.00
3917;BME280;1973;50.518;7.318;2023-04-29T12:47:13;101221.44;;;13.85;100.00
3917;BME280;1973;50.518;7.318;2023-04-29T12:49:40;101218.09;;;13.76;100.00
3917;BME280;1973;50.518;7.318;2023-04-29T12:52:08;101225.34;;;13.77;100.00
3917;BME280;1973;50.518;7.318;2023-04-29T12:54:36;101223.22;;;13.73;100.00
3917;BME280;1973;50.518;7.318;2023-04-29T12:57:03;101227.91;;;13.72;100.00
3917;BME280;1973;50.518;7.318;2023-04-29T12:59:29;101224.53;;;13.70;100.00
3917;BME280;1973;50.518;7.318;2023-04-29T13:01:56;101227.31;;;13.70;100.00
3917;BME280;1973;50.518;7.318;2023-04-29T13:04:23;101226.47;;;13.70;100.00
3917;BME280;1973;50.518;7.318;2023-04-29T13:06:49;101229.63;;;13.73;100.00
3917;BME280;1973;50.518;7.318;2023-04-29T13:09:19;101229.38;;;13.75;100.00
3917;BME280;1973;50.518;7.318;2023-04-29T13:11:45;101227.03;;;13.78;100.00
3917;BME280;1973;50.518;7.318;2023-04-29T13:14:12;101232.31;;;13.80;100.00
3917;BME280;1973;50.518;7.318;2023-04-29T13:16:38;101233.06;;;13.69;100.00
3917;BME280;1973;50.518;7.318;2023-04-29T13:19:06;101232.66;;;13.65;100.00
3917;BME280;1973;50.518;7.318;2023-04-29T13:21:52;101239.03;;;13.65;100.00
3917;BME280;1973;50.518;7.318;2023-04-29T13:24:19;101235.63;;;13.63;100.00
3917;BME280;1973;50.518;7.318;2023-04-29T13:26:46;101241.03;;;13.58;100.00